Newton Poppleford, United Kingdom
Current Conditions -  °F | °C
As of 12:20 AM on Thursday 27 Nov 2014 (Local Time) from EGTE Reporting Station
Broken Clouds Broken Clouds  
Wind Chill: 45°   Ceiling: 2600
Heat Index: 45°   Visibility: 4mi
Dew Point: 43°   Wind: 2mph
Humidity: 93%   Direction: NA
Pressure: 29.74"   Gusts: NA
Location:  50.7°N, 3.3°W
Report Text: EGTE 270020Z VRB02KT 6000 BKN026 07/06 Q1007
Loading
Personal Weather Stations






























Interactive Weather Map New forecast layout! Learn more

10-Day Weather Forecast

Advertisements
Track Severe Weather on mobile